Time;durP1;ratioP1;P1;durP2;ratioP2;P2;SDS_P1;SDS_P2;PMS_P1;PMS_P2;Temp;Humidity;BMP_temperature;BMP_pressure;BME280_temperature;BME280_humidity;BME280_pressure;Samples;Min_cycle;Max_cycle;Signal;HPM_P1;HPM_P2
2022/01/11 00:01:28;;;;;;;152.75;45.00;;;;;;;;;;5113586;28;20056;-69
2022/01/11 00:03:54;;;;;;;;;;;;;;;;;;5114641;28;20051;-70
2022/01/11 00:08:48;;;;;;;102.63;39.72;;;;;;;;;;5114190;28;20047;-70
2022/01/11 00:11:14;;;;;;;120.45;41.30;;;;;;;;;;5112977;28;20078;-69
2022/01/11 00:13:41;;;;;;;95.03;38.83;;;;;;;;;;5112972;28;20051;-69
2022/01/11 00:16:08;;;;;;;108.47;42.17;;;0.00;99.90;;;;;;5114113;28;20069;-69
2022/01/11 00:18:35;;;;;;;140.88;45.03;;;;;;;;;;5113010;28;20051;-70
2022/01/11 00:21:01;;;;;;;102.03;40.58;;;;;;;;;;5112806;28;20524;-69
2022/01/11 00:25:55;;;;;;;80.50;37.53;;;;;;;;;;5113936;28;20054;-69
2022/01/11 00:28:23;;;;;;;85.10;39.63;;;;;;;;;;5112903;28;20471;-70
2022/01/11 00:30:50;;;;;;;79.90;37.97;;;;;;;;;;5112360;28;20062;-70
2022/01/11 00:33:23;;;;;;;79.20;36.28;;;;;;;;;;5113201;28;20130;-70
2022/01/11 00:35:59;;;;;;;74.95;35.67;;;;;;;;;;5112742;28;20044;-70
2022/01/11 00:38:26;;;;;;;73.88;35.78;;;;;;;;;;5113691;28;20097;-69
2022/01/11 00:40:59;;;;;;;77.53;35.97;;;0.30;99.90;;;;;;5113843;28;20035;-70
2022/01/11 00:43:26;;;;;;;77.53;36.55;;;;;;;;;;5112629;28;20087;-70
2022/01/11 00:45:53;;;;;;;66.25;33.00;;;0.50;99.90;;;;;;5112471;28;20052;-71
2022/01/11 00:48:19;;;;;;;77.40;36.80;;;;;;;;;;5112261;28;20055;-72
2022/01/11 00:50:46;;;;;;;;;;;0.10;99.90;;;;;;5113168;28;20036;-70
2022/01/11 00:53:12;;;;;;;68.53;32.92;;;;;;;;;;5116417;28;19920;-70
2022/01/11 00:55:38;;;;;;;68.95;33.40;;;;;;;;;;5118364;28;20051;-70
2022/01/11 00:58:05;;;;;;;63.58;33.28;;;;;;;;;;5118048;28;20084;-70
2022/01/11 01:00:36;;;;;;;66.35;33.75;;;;;;;;;;5117745;28;20058;-71
2022/01/11 01:03:03;;;;;;;71.75;34.47;;;;;;;;;;5117159;28;20043;-71
2022/01/11 01:05:29;;;;;;;66.80;33.50;;;;;;;;;;5117325;28;20169;-71
2022/01/11 01:07:55;;;;;;;70.65;33.72;;;;;;;;;;5117291;28;20039;-71
2022/01/11 01:10:35;;;;;;;64.25;33.60;;;;;;;;;;5117183;28;20126;-71
2022/01/11 01:13:02;;;;;;;70.60;34.30;;;;;;;;;;5116237;28;20060;-71
2022/01/11 01:15:29;;;;;;;67.00;32.70;;;;;;;;;;5115826;28;20052;-72
2022/01/11 01:17:55;;;;;;;69.38;31.67;;;;;;;;;;5117223;28;20056;-72
2022/01/11 01:20:21;;;;;;;66.00;32.58;;;;;;;;;;5116079;28;20047;-72
2022/01/11 01:22:50;;;;;;;60.05;32.75;;;;;;;;;;5115684;28;20106;-72
2022/01/11 01:25:20;;;;;;;65.72;33.03;;;0.50;99.90;;;;;;5133714;27;20090;-71
2022/01/11 01:27:46;;;;;;;59.88;31.30;;;;;;;;;;5115750;28;20047;-71
2022/01/11 01:30:12;;;;;;;60.72;31.38;;;;;;;;;;5098826;28;20574;-70
2022/01/11 01:32:38;;;;;;;57.95;31.80;;;;;;;;;;5116320;28;20059;-71
2022/01/11 01:35:05;;;;;;;57.60;30.92;;;;;;;;;;5115750;28;20134;-72
2022/01/11 01:37:31;;;;;;;61.35;30.45;;;;;;;;;;5117132;28;20048;-72
2022/01/11 01:39:57;;;;;;;;;;;;;;;;;;5115926;28;20124;-71
2022/01/11 01:42:26;;;;;;;66.07;30.85;;;;;;;;;;5116596;27;20359;-71
2022/01/11 01:44:52;;;;;;;59.92;31.05;;;;;;;;;;5116854;28;20043;-71
2022/01/11 01:47:19;;;;;;;53.78;30.38;;;;;;;;;;5115204;28;20047;-72
2022/01/11 01:49:45;;;;;;;62.95;30.23;;;;;;;;;;5115637;28;20384;-71
2022/01/11 01:52:13;;;;;;;61.65;31.80;;;;;;;;;;5116345;28;20406;-71
2022/01/11 01:54:40;;;;;;;59.50;30.67;;;;;;;;;;5116341;28;20047;-72
2022/01/11 01:57:06;;;;;;;62.65;29.98;;;;;;;;;;5115454;28;20133;-72
2022/01/11 01:59:32;;;;;;;59.45;29.35;;;;;;;;;;5116246;28;20084;-71
2022/01/11 02:01:58;;;;;;;61.30;30.83;;;;;;;;;;5116057;28;20047;-71
2022/01/11 02:04:24;;;;;;;60.30;31.13;;;;;;;;;;5114589;28;20467;-71
2022/01/11 02:06:51;;;;;;;55.97;29.52;;;;;;;;;;5116162;28;20044;-71
2022/01/11 02:09:17;;;;;;;58.35;30.70;;;;;;;;;;5114548;28;20499;-71
2022/01/11 02:11:44;;;;;;;59.58;27.83;;;;;;;;;;5114789;28;20087;-71
2022/01/11 02:14:10;;;;;;;65.05;29.10;;;;;;;;;;5132110;27;20094;-72
2022/01/11 02:16:36;;;;;;;65.72;31.25;;;;;;;;;;5115768;28;20112;-72
2022/01/11 02:19:02;;;;;;;61.58;30.20;;;;;;;;;;5114946;28;20050;-72
2022/01/11 02:21:28;;;;;;;64.65;29.90;;;;;;;;;;5115886;28;20409;-72
2022/01/11 02:23:55;;;;;;;65.65;30.98;;;;;;;;;;5115991;28;20051;-72
2022/01/11 02:26:22;;;;;;;72.90;31.02;;;;;;;;;;5115793;28;20058;-72
2022/01/11 02:28:48;;;;;;;63.17;29.75;;;;;;;;;;5115725;28;20055;-72
2022/01/11 02:31:14;;;;;;;64.13;29.95;;;;;;;;;;5115238;27;20055;-71
2022/01/11 02:33:44;;;;;;;59.45;31.38;;;;;;;;;;5114407;28;20047;-72
2022/01/11 02:36:15;;;;;;;60.78;29.98;;;;;;;;;;5114583;28;20087;-72
2022/01/11 02:38:41;;;;;;;63.72;30.77;;;;;;;;;;5115179;28;20055;-71
2022/01/11 02:41:07;;;;;;;;;;;0.70;99.90;;;;;;5114811;28;20060;-71
2022/01/11 02:43:33;;;;;;;68.00;28.73;;;;;;;;;;5115478;28;19927;-71
2022/01/11 02:46:00;;;;;;;65.03;29.92;;;;;;;;;;5113813;28;20487;-72
2022/01/11 02:48:27;;;;;;;66.53;29.42;;;;;;;;;;5114347;28;20047;-72
2022/01/11 02:50:53;;;;;;;63.15;28.98;;;;;;;;;;5115258;28;20043;-71
2022/01/11 02:53:19;;;;;;;63.17;29.48;;;;;;;;;;5115274;28;20043;-72
2022/01/11 02:55:45;;;;;;;65.43;31.10;;;;;;;;;;5097240;28;20048;-72
2022/01/11 02:58:11;;;;;;;;;;;;;;;;;;5115536;28;20044;-71
2022/01/11 03:00:41;;;;;;;69.65;30.05;;;;;;;;;;5114897;28;19927;-72
2022/01/11 03:03:22;;;;;;;69.25;31.98;;;;;;;;;;5114029;28;20047;-71
2022/01/11 03:05:51;;;;;;;66.30;30.48;;;;;;;;;;5115144;28;20508;-71
2022/01/11 03:08:17;;;;;;;77.78;32.63;;;;;;;;;;5131039;27;20059;-71
2022/01/11 03:10:43;;;;;;;64.07;29.98;;;;;;;;;;5113941;28;20387;-72
2022/01/11 03:13:10;;;;;;;66.35;31.23;;;;;;;;;;5114836;28;20130;-72
2022/01/11 03:15:36;;;;;;;75.00;32.45;;;;;;;;;;5112923;28;20423;-72
2022/01/11 03:18:04;;;;;;;75.28;33.28;;;;;;;;;;5114742;28;20393;-72
2022/01/11 03:20:30;;;;;;;78.32;32.13;;;;;;;;;;5113727;28;20058;-72
2022/01/11 03:22:56;;;;;;;81.93;32.50;;;;;;;;;;5114663;28;20052;-71
2022/01/11 03:25:23;;;;;;;79.90;31.52;;;;;;;;;;5113528;28;20335;-71
2022/01/11 03:27:50;;;;;;;76.10;32.13;;;;;;;;;;5114326;28;20132;-71
2022/01/11 03:30:16;;;;;;;;;;;;;;;;;;5114869;28;20054;-72
2022/01/11 03:32:42;;;;;;;83.13;33.95;;;;;;;;;;5114179;28;19920;-72
2022/01/11 03:35:09;;;;;;;79.97;35.55;;;0.40;99.90;;;;;;5096495;28;20052;-71
2022/01/11 03:37:36;;;;;;;81.00;36.70;;;;;;;;;;5114339;28;20047;-72
2022/01/11 03:40:04;;;;;;;95.07;36.53;;;;;;;;;;5113109;28;20079;-72
2022/01/11 03:42:30;;;;;;;89.22;37.22;;;;;;;;;;5112710;28;20044;-72
2022/01/11 03:44:56;;;;;;;92.18;36.55;;;;;;;;;;5112798;28;20476;-71
2022/01/11 03:47:22;;;;;;;86.82;36.30;;;;;;;;;;5113176;28;20395;-72
2022/01/11 03:49:48;;;;;;;88.90;37.10;;;;;;;;;;5112894;28;20101;-72
2022/01/11 03:52:15;;;;;;;89.65;35.83;;;;;;;;;;5113427;28;20050;-72
2022/01/11 03:55:03;;;;;;;95.68;37.55;;;;;;;;;;5113309;28;20099;-72
2022/01/11 03:57:29;;;;;;;85.53;37.10;;;;;;;;;;5113962;28;20047;-72
2022/01/11 03:59:56;;;;;;;95.18;37.30;;;;;;;;;;5112918;28;20504;-71
2022/01/11 04:02:22;;;;;;;89.88;37.60;;;;;;;;;;5112945;28;20047;-72
2022/01/11 04:04:52;;;;;;;;;;;;;;;;;;5114068;28;20138;-71
2022/01/11 04:07:23;;;;;;;96.38;36.25;;;;;;;;;;5112736;28;19934;-71
2022/01/11 04:09:50;;;;;;;87.57;35.70;;;;;;;;;;5112766;28;20055;-72
2022/01/11 04:12:16;;;;;;;88.28;37.20;;;;;;;;;;5112402;28;20140;-71
2022/01/11 04:14:42;;;;;;;102.55;37.15;;;;;;;;;;5113754;28;20613;-72
2022/01/11 04:17:09;;;;;;;101.05;39.63;;;;;;;;;;5113905;28;20046;-72
2022/01/11 04:19:35;;;;;;;99.13;38.53;;;;;;;;;;5113658;28;20052;-72
2022/01/11 04:22:01;;;;;;;101.03;39.05;;;;;;;;;;5113650;28;20047;-71
2022/01/11 04:24:27;;;;;;;112.15;42.03;;;;;;;;;;5129911;27;20054;-71
2022/01/11 04:26:53;;;;;;;113.38;42.40;;;;;;;;;;5113278;28;20041;-71
2022/01/11 04:29:19;;;;;;;105.88;43.42;;;;;;;;;;5113647;28;20052;-69
2022/01/11 04:31:45;;;;;;;123.75;43.17;;;;;;;;;;5113260;28;20051;-72
2022/01/11 04:34:11;;;;;;;121.00;44.35;;;;;;;;;;5113232;28;20480;-71
2022/01/11 04:36:38;;;;;;;113.20;42.92;;;;;;;;;;5095474;28;20139;-71
2022/01/11 04:39:05;;;;;;;121.30;44.92;;;;;;;;;;5113538;28;20046;-72
2022/01/11 04:41:31;;;;;;;126.90;43.40;;;;;;;;;;5113242;28;20040;-71
2022/01/11 04:43:57;;;;;;;129.45;46.40;;;;;;;;;;5112450;28;20062;-71
2022/01/11 04:46:25;;;;;;;128.10;45.10;;;;;;;;;;5095338;28;20043;-71
2022/01/11 04:48:51;;;;;;;115.90;43.20;;;;;;;;;;5112041;28;20494;-71
2022/01/11 04:51:17;;;;;;;129.20;43.50;;;;;;;;;;5111957;28;20045;-72
2022/01/11 04:53:43;;;;;;;129.52;44.25;;;;;;;;;;5113370;28;20048;-71
2022/01/11 04:56:10;;;;;;;116.15;41.90;;;;;;;;;;5113221;28;20043;-72
2022/01/11 04:58:36;;;;;;;116.20;43.22;;;;;;;;;;5113669;28;20052;-71
2022/01/11 05:01:02;;;;;;;123.38;43.05;;;;;;;;;;5112052;28;20055;-71
2022/01/11 05:03:28;;;;;;;114.80;41.80;;;;;;;;;;5113283;28;20047;-71
2022/01/11 05:05:54;;;;;;;117.70;41.03;;;;;;;;;;5112156;28;20158;-71
2022/01/11 05:08:20;;;;;;;130.15;45.03;;;;;;;;;;5129348;28;20127;-71
2022/01/11 05:10:46;;;;;;;117.80;43.13;;;;;;;;;;5111865;28;20050;-71
2022/01/11 05:13:13;;;;;;;125.25;44.70;;;;;;;;;;5112221;28;20048;-70
2022/01/11 05:15:39;;;;;;;117.63;42.88;;;;;;;;;;5113183;28;20054;-71
2022/01/11 05:18:05;;;;;;;;;;;;;;;;;;5113567;28;20044;-71
2022/01/11 05:20:31;;;;;;;114.45;41.85;;;;;;;;;;5112484;28;19968;-71
2022/01/11 05:22:57;;;;;;;113.47;40.15;;;;;;;;;;5113118;28;20044;-71
2022/01/11 05:25:23;;;;;;;118.70;40.90;;;;;;;;;;5112042;28;20532;-72
2022/01/11 05:27:49;;;;;;;127.55;41.00;;;;;;;;;;5111799;28;20426;-72
2022/01/11 05:30:15;;;;;;;112.72;40.33;;;;;;;;;;5095381;28;20387;-71
2022/01/11 05:32:42;;;;;;;112.43;38.83;;;;;;;;;;5112546;28;20064;-72
2022/01/11 05:35:10;;;;;;;113.13;39.10;;;;;;;;;;5112025;28;20354;-71
2022/01/11 05:37:36;;;;;;;110.45;41.88;;;;;;;;;;5112901;28;20047;-71
2022/01/11 05:40:03;;;;;;;103.50;37.85;;;;;;;;;;5115313;28;20044;-71
2022/01/11 05:42:29;;;;;;;108.20;38.20;;;;;;;;;;5116628;28;20040;-71
2022/01/11 05:44:55;;;;;;;107.35;37.85;;;;;;;;;;5115568;28;20097;-71
2022/01/11 05:47:21;;;;;;;106.40;36.03;;;;;;;;;;5115493;28;20126;-72
2022/01/11 05:49:47;;;;;;;115.90;37.53;;;;;;;;;;5116463;28;20047;-71
2022/01/11 05:52:13;;;;;;;96.70;36.97;;;;;;;;;;5116416;28;20084;-71
2022/01/11 05:54:39;;;;;;;100.00;36.03;;;;;;;;;;5114950;28;20056;-72
2022/01/11 05:57:05;;;;;;;97.32;34.20;;;;;;;;;;5116306;28;20054;-72
2022/01/11 05:59:31;;;;;;;99.80;34.65;;;;;;;;;;5115322;28;20081;-72
2022/01/11 06:01:57;;;;;;;97.55;35.08;;;;;;;;;;5116241;27;20050;-72
2022/01/11 06:04:24;;;;;;;86.70;33.28;;;;;;;;;;5115124;28;20431;-72
2022/01/11 06:06:50;;;;;;;89.85;34.60;;;;;;;;;;5115419;28;20385;-69
2022/01/11 06:09:17;;;;;;;91.35;32.97;;;;;;;;;;5115965;28;20104;-71
2022/01/11 06:11:43;;;;;;;87.60;33.28;;;;;;;;;;5116088;28;20093;-71
2022/01/11 06:14:09;;;;;;;85.22;32.80;;;;;;;;;;5115471;28;20047;-71
2022/01/11 06:16:36;;;;;;;78.03;31.98;;;;;;;;;;5114922;28;20063;-71
2022/01/11 06:19:02;;;;;;;89.30;33.40;;;;;;;;;;5115908;28;20126;-72
2022/01/11 06:21:28;;;;;;;80.88;31.67;;;;;;;;;;5114601;28;20052;-72
2022/01/11 06:23:54;;;;;;;87.03;32.45;;;;;;;;;;5114809;28;20105;-72
2022/01/11 06:26:20;;;;;;;87.38;30.80;;;;;;;;;;5115744;28;20134;-72
2022/01/11 06:28:46;;;;;;;80.63;30.73;;;;;;;;;;5114613;28;20050;-72
2022/01/11 06:31:13;;;;;;;72.72;31.27;;;;;;;;;;5113906;28;20488;-72
2022/01/11 06:33:39;;;;;;;80.32;31.67;;;;;;;;;;5114720;28;20130;-72
2022/01/11 06:36:10;;;;;;;78.40;30.67;;;;;;;;;;5114282;28;20047;-71
2022/01/11 06:38:36;;;;;;;77.25;30.33;;;;;;;;;;5097581;28;20061;-72
2022/01/11 06:41:02;;;;;;;73.95;29.70;;;;;;;;;;5114365;28;20118;-72
2022/01/11 06:43:28;;;;;;;78.03;29.50;;;;;;;;;;5115453;28;20044;-71
2022/01/11 06:45:54;;;;;;;67.40;28.23;;;;;;;;;;5116098;28;20047;-72
2022/01/11 06:48:20;;;;;;;78.53;29.13;;;;;;;;;;5114603;28;20458;-72
2022/01/11 06:50:47;;;;;;;75.78;29.50;;;;;;;;;;5115070;28;20306;-72
2022/01/11 06:53:13;;;;;;;;;;;0.80;99.90;;;;;;5115934;28;20079;-71
2022/01/11 06:55:39;;;;;;;82.20;28.92;;;;;;;;;;5114998;28;20056;-72
2022/01/11 06:58:05;;;;;;;73.28;30.17;;;;;;;;;;5115228;27;20047;-72
2022/01/11 07:00:31;;;;;;;64.68;27.90;;;;;;;;;;5114211;28;20130;-72
2022/01/11 07:02:57;;;;;;;74.60;28.80;;;;;;;;;;5115120;28;20179;-72
2022/01/11 07:05:23;;;;;;;66.43;29.70;;;;;;;;;;5114852;27;20043;-72
2022/01/11 07:07:50;;;;;;;70.68;29.13;;;;;;;;;;5114033;28;20049;-71
2022/01/11 07:10:16;;;;;;;67.65;28.83;;;;;;;;;;5115239;28;20054;-72
2022/01/11 07:12:42;;;;;;;71.60;28.25;;;;;;;;;;5114923;28;20108;-72
2022/01/11 07:15:09;;;;;;;68.70;29.67;;;;;;;;;;5114184;28;20051;-72
2022/01/11 07:17:34;;;;;;;;;;;0.70;99.90;;;;;;5096906;28;20053;-71
2022/01/11 07:20:00;;;;;;;74.32;27.45;;;;;;;;;;5114682;28;19924;-72
2022/01/11 07:22:26;;;;;;;63.25;25.95;;;;;;;;;;5113910;28;20043;-72
2022/01/11 07:24:53;;;;;;;65.25;28.92;;;;;;;;;;5114849;28;20046;-72
2022/01/11 07:27:19;;;;;;;66.10;28.33;;;;;;;;;;5096657;28;20079;-72
2022/01/11 07:29:45;;;;;;;63.85;25.83;;;;;;;;;;5113263;28;20097;-72
2022/01/11 07:32:11;;;;;;;63.47;26.45;;;;;;;;;;5114247;28;20506;-72
2022/01/11 07:34:37;;;;;;;67.97;26.70;;;;;;;;;;5114325;28;20051;-72
2022/01/11 07:37:03;;;;;;;64.75;27.63;;;;;;;;;;5113348;28;20051;-72
2022/01/11 07:39:30;;;;;;;65.63;26.90;;;;;;;;;;5113439;28;20363;-72
2022/01/11 07:41:56;;;;;;;60.20;25.98;;;;;;;;;;5114327;28;20051;-73
2022/01/11 07:44:22;;;;;;;62.50;25.25;;;;;;;;;;5113547;28;20050;-73
2022/01/11 07:46:48;;;;;;;63.03;26.65;;;;;;;;;;5113277;28;20063;-73
2022/01/11 07:49:15;;;;;;;59.53;23.90;;;;;;;;;;5113926;28;20097;-73
2022/01/11 07:51:41;;;;;;;55.20;24.40;;;;;;;;;;5103140;28;20414;-73
2022/01/11 07:54:07;;;;;;;59.42;25.00;;;;;;;;;;5110101;28;20043;-73
2022/01/11 07:56:33;;;;;;;60.30;23.75;;;;;;;;;;5110715;27;20058;-73
2022/01/11 07:58:59;;;;;;;64.25;25.13;;;;;;;;;;5110046;28;20093;-73
2022/01/11 08:01:25;;;;;;;59.20;25.13;;;;;;;;;;5109166;28;20081;-73
2022/01/11 08:03:51;;;;;;;63.78;23.75;;;;;;;;;;5109647;28;20074;-73
2022/01/11 08:06:17;;;;;;;52.67;23.42;;;;;;;;;;5109693;28;20059;-73
2022/01/11 08:08:43;;;;;;;56.33;24.67;;;;;;;;;;5111392;28;20067;-73
2022/01/11 08:11:10;;;;;;;55.03;23.50;;;;;;;;;;5110256;28;20050;-73
2022/01/11 08:13:37;;;;;;;61.67;25.50;;;;;;;;;;5101111;28;20391;-72
2022/01/11 08:16:03;;;;;;;65.45;25.48;;;0.40;99.90;;;;;;5108258;28;20047;-72
2022/01/11 08:18:29;;;;;;;56.72;25.10;;;;;;;;;;5110871;28;20040;-73
2022/01/11 08:20:55;;;;;;;56.75;25.20;;;;;;;;;;5108462;28;20036;-72
2022/01/11 08:23:21;;;;;;;56.13;24.73;;;;;;;;;;5110516;28;20558;-72
2022/01/11 08:25:47;;;;;;;59.72;24.52;;;;;;;;;;5110730;28;20043;-73
2022/01/11 08:28:14;;;;;;;52.08;23.40;;;;;;;;;;5110655;28;20055;-73
2022/01/11 08:30:40;;;;;;;55.75;23.33;;;;;;;;;;5108711;28;20054;-72
2022/01/11 08:33:06;;;;;;;;;;;;;;;;;;5109771;28;20052;-72
2022/01/11 08:35:33;;;;;;;56.45;24.20;;;;;;;;;;5110255;28;19926;-72
2022/01/11 08:37:59;;;;;;;59.28;23.70;;;;;;;;;;5110793;28;20047;-72
2022/01/11 08:40:26;;;;;;;58.75;25.80;;;;;;;;;;5110310;28;20087;-73
2022/01/11 08:42:52;;;;;;;58.55;24.13;;;;;;;;;;5110482;28;20050;-73
2022/01/11 08:45:19;;;;;;;54.53;23.70;;;;;;;;;;5109494;28;20123;-73
2022/01/11 08:47:45;;;;;;;56.00;24.40;;;;;;;;;;5105283;28;20035;-72
2022/01/11 08:50:14;;;;;;;54.10;25.30;;;;;;;;;;5108552;28;20093;-73
2022/01/11 08:52:41;;;;;;;56.33;24.08;;;;;;;;;;5109498;28;20039;-72
2022/01/11 08:55:07;;;;;;;50.75;23.98;;;;;;;;;;5104008;28;20133;-71
2022/01/11 08:57:34;;;;;;;50.97;23.90;;;;;;;;;;5110618;28;20051;-73
2022/01/11 09:00:02;;;;;;;58.33;25.20;;;;;;;;;;5112208;28;20130;-72
2022/01/11 09:02:29;;;;;;;59.95;24.50;;;;;;;;;;5112801;28;20089;-71
2022/01/11 09:04:56;;;;;;;52.50;22.70;;;;;;;;;;5113141;28;20087;-73
2022/01/11 09:07:22;;;;;;;52.38;24.55;;;;;;;;;;5113098;28;20039;-72
2022/01/11 09:09:48;;;;;;;;;;;0.50;99.90;;;;;;5113478;28;20459;-70
2022/01/11 09:12:15;;;;;;;50.83;23.38;;;;;;;;;;5112394;28;19920;-70
2022/01/11 09:14:42;;;;;;;51.38;22.25;;;;;;;;;;5114948;28;20055;-69
2022/01/11 09:17:08;;;;;;;50.70;23.35;;;;;;;;;;5115677;28;20460;-69
2022/01/11 09:19:34;;;;;;;51.40;24.08;;;;;;;;;;5117057;28;20203;-70
2022/01/11 09:22:00;;;;;;;48.95;22.55;;;;;;;;;;5116874;28;20039;-71
2022/01/11 09:24:30;;;;;;;51.38;22.50;;;;;;;;;;5116777;28;20039;-71
2022/01/11 09:27:00;;;;;;;53.75;22.20;;;;;;;;;;5098692;28;20047;-70
2022/01/11 09:29:26;;;;;;;50.05;23.95;;;;;;;;;;5116806;28;20066;-70
2022/01/11 09:31:55;;;;;;;53.45;23.63;;;;;;;;;;5116281;28;20047;-70
2022/01/11 09:34:21;;;;;;;53.20;25.42;;;;;;;;;;5115611;28;20147;-70
2022/01/11 09:36:47;;;;;;;49.00;22.02;;;;;;;;;;5116642;27;20328;-71
2022/01/11 09:39:14;;;;;;;48.00;22.83;;;;;;;;;;5115275;28;20031;-70
2022/01/11 09:41:40;;;;;;;48.35;23.13;;;;;;;;;;5115603;28;20418;-70
2022/01/11 09:44:07;;;;;;;51.78;22.63;;;;;;;;;;5115234;28;20035;-71
2022/01/11 09:46:33;;;;;;;55.08;23.85;;;;;;;;;;5116278;28;20119;-70
2022/01/11 09:49:00;;;;;;;54.45;23.38;;;;;;;;;;5116469;28;20036;-71
2022/01/11 09:51:26;;;;;;;49.20;23.25;;;;;;;;;;5116274;28;20039;-71
2022/01/11 09:53:52;;;;;;;46.70;20.77;;;;;;;;;;5116313;28;20043;-72
2022/01/11 09:56:19;;;;;;;53.03;22.52;;;;;;;;;;5115839;28;20048;-71
2022/01/11 09:58:45;;;;;;;52.38;23.58;;;;;;;;;;5095781;28;20044;-71
2022/01/11 10:01:12;;;;;;;52.88;24.17;;;;;;;;;;5095580;28;20421;-71
2022/01/11 10:03:57;;;;;;;53.47;22.80;;;;;;;;;;5094569;28;20100;-71
2022/01/11 10:06:24;;;;;;;54.15;24.15;;;;;;;;;;5095292;28;20086;-70
2022/01/11 10:08:50;;;;;;;56.55;24.13;;;;;;;;;;5107624;28;20048;-71
2022/01/11 10:11:32;;;;;;;;;;;0.60;99.90;;;;;;5116330;28;20031;-69
2022/01/11 10:13:58;;;;;;;59.08;25.15;;;;;;;;;;5115502;28;19990;-72
2022/01/11 10:16:25;;;;;;;58.85;23.52;;;;;;;;;;5114212;28;20052;-73
2022/01/11 10:18:53;;;;;;;52.40;22.15;;;0.90;99.90;;;;;;5105425;28;20043;-71
2022/01/11 10:21:34;;;;;;;56.47;23.65;;;;;;;;;;5109788;28;20224;-70
2022/01/11 10:24:20;;;;;;;59.00;24.63;;;;;;;;;;5111009;28;20058;-70
2022/01/11 10:26:47;;;;;;;54.33;25.13;;;;;;;;;;5109712;28;20082;-69
2022/01/11 10:29:23;;;;;;;55.40;24.45;;;;;;;;;;5111810;28;20069;-71
2022/01/11 10:31:50;;;;;;;51.22;23.95;;;;;;;;;;5111236;28;20055;-69
2022/01/11 10:34:25;;;;;;;56.78;25.35;;;;;;;;;;5110772;28;20050;-69
2022/01/11 10:36:51;;;;;;;56.67;24.75;;;;;;;;;;5110046;28;20051;-72
2022/01/11 10:39:29;;;;;;;54.63;25.63;;;;;;;;;;5107964;28;20459;-68
2022/01/11 10:41:57;;;;;;;57.25;25.50;;;1.70;99.90;;;;;;5107412;28;20088;-68
2022/01/11 10:44:42;;;;;;;52.95;23.65;;;;;;;;;;5112096;28;20770;-68
2022/01/11 10:47:08;;;;;;;52.63;25.65;;;;;;;;;;5110272;28;20097;-68
2022/01/11 10:49:36;;;;;;;49.28;25.23;;;;;;;;;;5113491;28;20081;-68
2022/01/11 10:52:14;;;;;;;51.42;25.40;;;;;;;;;;5115688;28;20043;-68
2022/01/11 10:54:44;;;;;;;57.20;24.25;;;2.00;99.90;;;;;;5115335;28;20039;-68
2022/01/11 10:57:14;;;;;;;57.92;26.55;;;;;;;;;;5114063;28;20449;-68
2022/01/11 10:59:41;;;;;;;54.10;25.38;;;;;;;;;;5114825;28;20052;-68
2022/01/11 11:02:12;;;;;;;49.75;24.20;;;;;;;;;;5115345;28;20040;-67
2022/01/11 11:04:38;;;;;;;52.20;25.88;;;;;;;;;;5113117;28;20607;-67
2022/01/11 11:07:15;;;;;;;52.42;24.65;;;2.40;99.90;;;;;;5114554;28;20070;-68
2022/01/11 11:09:48;;;;;;;50.92;25.55;;;;;;;;;;5115071;28;20058;-69
2022/01/11 11:12:24;;;;;;;56.83;26.40;;;;;;;;;;5114494;28;20172;-68
2022/01/11 11:14:54;;;;;;;56.53;26.13;;;;;;;;;;5113965;28;20130;-68
2022/01/11 11:17:37;;;;;;;54.70;26.10;;;;;;;;;;5113805;28;20047;-68
2022/01/11 11:20:05;;;;;;;57.33;26.20;;;;;;;;;;5113786;28;20044;-68
2022/01/11 11:22:31;;;;;;;54.50;25.38;;;;;;;;;;5114737;27;20055;-68
2022/01/11 11:24:58;;;;;;;59.22;27.00;;;;;;;;;;5113669;28;20537;-68
2022/01/11 11:27:25;;;;;;;57.05;26.38;;;;;;;;;;5114525;28;20570;-68
2022/01/11 11:29:52;;;;;;;55.72;26.75;;;;;;;;;;5113493;28;20052;-68
2022/01/11 11:32:19;;;;;;;58.72;26.95;;;;;;;;;;5113096;28;20187;-68
2022/01/11 11:34:49;;;;;;;57.08;28.23;;;;;;;;;;5114672;28;20052;-68
2022/01/11 11:37:24;;;;;;;60.22;27.35;;;2.00;99.90;;;;;;5114205;28;20056;-69
2022/01/11 11:39:57;;;;;;;58.95;25.52;;;;;;;;;;5114447;28;20043;-68
2022/01/11 11:42:25;;;;;;;55.17;26.88;;;2.00;99.90;;;;;;5112971;28;20058;-67
2022/01/11 11:44:51;;;;;;;57.05;26.55;;;;;;;;;;5114188;28;20130;-68
2022/01/11 11:47:27;;;;;;;51.97;25.10;;;;;;;;;;5114283;28;20043;-68
2022/01/11 11:49:55;;;;;;;58.33;24.98;;;;;;;;;;5113989;28;20043;-68
2022/01/11 11:52:31;;;;;;;51.58;25.00;;;2.30;99.90;;;;;;5112817;28;20040;-68
2022/01/11 11:55:20;;;;;;;57.13;25.70;;;;;;;;;;5112903;28;20066;-72
2022/01/11 11:57:49;;;;;;;54.05;24.48;;;2.00;99.90;;;;;;5105193;28;20067;-68
2022/01/11 12:00:29;;;;;;;59.22;25.80;;;;;;;;;;5108642;28;20426;-68
2022/01/11 12:02:57;;;;;;;53.40;23.95;;;2.50;99.90;;;;;;5112070;28;20540;-68
2022/01/11 12:05:32;;;;;;;53.47;24.15;;;;;;;;;;5113723;28;20452;-68
2022/01/11 12:07:58;;;;;;;52.28;23.92;;;;;;;;;;5114683;28;20395;-67
2022/01/11 12:10:48;;;;;;;52.85;24.52;;;3.00;99.90;;;;;;5113023;28;20411;-68
2022/01/11 12:13:36;;;;;;;53.20;23.25;;;2.80;99.90;;;;;;5113764;28;20082;-67
2022/01/11 12:16:02;;;;;;;51.47;23.80;;;;;;;;;;5114048;28;20039;-67
2022/01/11 12:18:42;;;;;;;55.72;23.30;;;;;;;;;;5114076;28;20090;-67
2022/01/11 12:21:10;;;;;;;48.10;22.20;;;;;;;;;;5113550;28;20459;-67
2022/01/11 12:23:36;;;;;;;47.60;22.45;;;;;;;;;;5112609;28;20098;-67
2022/01/11 12:26:14;;;;;;;44.60;20.60;;;;;;;;;;5113625;28;20079;-67
2022/01/11 12:28:40;;;;;;;45.40;22.48;;;;;;;;;;5112572;28;20047;-67
2022/01/11 12:31:25;;;;;;;48.10;21.23;;;;;;;;;;5112490;28;20040;-68
2022/01/11 12:33:51;;;;;;;44.60;21.63;;;;;;;;;;5114240;28;20070;-67
2022/01/11 12:36:17;;;;;;;47.47;20.52;;;;;;;;;;5112758;28;20047;-68
2022/01/11 12:39:04;;;;;;;44.80;20.33;;;;;;;;;;5113362;28;20043;-68
2022/01/11 12:41:34;;;;;;;42.45;19.80;;;;;;;;;;5113692;28;20254;-68
2022/01/11 12:47:09;;;;;;;42.25;20.77;;;;;;;;;;5093252;28;20063;-68
2022/01/11 12:49:39;;;;;;;41.42;20.67;;;;;;;;;;5117175;28;20065;-68
2022/01/11 12:52:10;;;;;;;46.00;20.63;;;;;;;;;;5117674;28;20138;-69
2022/01/11 12:54:49;;;;;;;41.35;20.45;;;3.10;99.90;;;;;;5117474;28;20045;-68
2022/01/11 12:57:23;;;;;;;44.35;21.35;;;3.00;99.90;;;;;;5116795;28;20059;-68
2022/01/11 12:59:50;;;;;;;42.22;20.60;;;;;;;;;;5117599;28;20083;-68
2022/01/11 13:02:18;;;;;;;35.58;18.58;;;;;;;;;;5117435;28;20047;-68
2022/01/11 13:04:46;;;;;;;45.85;20.83;;;;;;;;;;5117476;28;20047;-68
2022/01/11 13:07:32;;;;;;;40.60;19.75;;;;;;;;;;5117407;28;20387;-68
2022/01/11 13:10:10;;;;;;;42.97;19.23;;;;;;;;;;5116135;28;20055;-68
2022/01/11 13:12:41;;;;;;;45.00;19.83;;;;;;;;;;5117283;28;20100;-68
2022/01/11 13:15:17;;;;;;;39.95;19.88;;;;;;;;;;5117051;28;20088;-68
2022/01/11 13:18:00;;;;;;;46.43;20.47;;;3.50;99.90;;;;;;5116788;27;20047;-68
2022/01/11 13:20:28;;;;;;;39.97;18.30;;;;;;;;;;5115991;28;20044;-69
2022/01/11 13:23:11;;;;;;;32.85;16.95;;;3.50;99.90;;;;;;5115159;27;20052;-68
2022/01/11 13:25:43;;;;;;;43.45;19.73;;;3.40;99.90;;;;;;5117499;28;20043;-68
2022/01/11 13:28:10;;;;;;;42.05;20.17;;;;;;;;;;5117105;28;20096;-68
2022/01/11 13:30:40;;;;;;;;;;;3.40;99.90;;;;;;5116541;28;20387;-68
2022/01/11 13:33:07;;;;;;;39.72;18.95;;;3.60;99.90;;;;;;5117002;28;19934;-68
2022/01/11 13:35:34;;;;;;;38.55;18.70;;;3.20;99.90;;;;;;5115107;28;20044;-68
2022/01/11 13:38:09;;;;;;;37.45;18.00;;;;;;;;;;5116185;28;20036;-69
2022/01/11 13:40:36;;;;;;;35.45;18.00;;;;;;;;;;5105390;28;20247;-69
2022/01/11 13:43:02;;;;;;;41.28;18.98;;;;;;;;;;5116125;27;20380;-70
2022/01/11 13:45:36;;;;;;;33.08;17.90;;;3.50;99.90;;;;;;5096195;28;20085;-70
2022/01/11 13:48:20;;;;;;;33.70;17.15;;;;;;;;;;5111311;28;20044;-70
2022/01/11 13:51:07;;;;;;;34.25;17.67;;;;;;;;;;5113488;28;20373;-69
2022/01/11 13:53:34;;;;;;;39.72;18.42;;;;;;;;;;5115806;28;20051;-71
2022/01/11 13:56:03;;;;;;;37.78;18.02;;;;;;;;;;5116370;28;20051;-72
2022/01/11 13:58:29;;;;;;;40.05;18.63;;;;;;;;;;5114584;28;20047;-72
2022/01/11 14:00:55;;;;;;;;;;;;;;;;;;5116426;28;20040;-72
2022/01/11 14:03:22;;;;;;;35.30;18.05;;;;;;;;;;5116279;28;19943;-71
2022/01/11 14:05:48;;;;;;;34.42;17.15;;;;;;;;;;5115573;28;20112;-72
2022/01/11 14:08:14;;;;;;;37.60;17.55;;;;;;;;;;5115967;28;20043;-70
2022/01/11 14:10:52;;;;;;;;;;;3.60;99.90;;;;;;5116347;28;20052;-71
2022/01/11 14:13:19;;;;;;;36.47;17.85;;;;;;;;;;5116220;28;19919;-71
2022/01/11 14:15:45;;;;;;;36.15;17.38;;;;;;;;;;5115626;28;20451;-71
2022/01/11 14:18:14;;;;;;;36.85;18.25;;;3.30;99.90;;;;;;5114978;28;20044;-71
2022/01/11 14:20:41;;;;;;;33.95;17.63;;;;;;;;;;5115679;28;20052;-71
2022/01/11 14:23:13;;;;;;;37.97;17.25;;;3.60;99.90;;;;;;5115920;28;20047;-68